sensor_id;sensor_type;location;lat;lon;timestamp;P1;durP1;ratioP1;P2;durP2;ratioP2
59786;SDS011;45672;51.612;5.536;2023-08-24T00:00:11;5.10;;;3.70;;
59786;SDS011;45672;51.612;5.536;2023-08-24T00:02:37;7.97;;;3.90;;
59786;SDS011;45672;51.612;5.536;2023-08-24T00:05:02;6.28;;;3.75;;
59786;SDS011;45672;51.612;5.536;2023-08-24T00:07:28;5.43;;;4.00;;
59786;SDS011;45672;51.612;5.536;2023-08-24T00:09:53;8.20;;;4.00;;
59786;SDS011;45672;51.612;5.536;2023-08-24T00:12:19;4.80;;;4.35;;
59786;SDS011;45672;51.612;5.536;2023-08-24T00:14:44;5.78;;;3.90;;
59786;SDS011;45672;51.612;5.536;2023-08-24T00:17:10;4.47;;;4.00;;
59786;SDS011;45672;51.612;5.536;2023-08-24T00:19:36;5.35;;;4.20;;
59786;SDS011;45672;51.612;5.536;2023-08-24T00:22:01;5.43;;;3.92;;
59786;SDS011;45672;51.612;5.536;2023-08-24T00:24:26;6.82;;;4.07;;
59786;SDS011;45672;51.612;5.536;2023-08-24T00:26:51;9.25;;;4.00;;
59786;SDS011;45672;51.612;5.536;2023-08-24T00:29:17;8.02;;;3.97;;
59786;SDS011;45672;51.612;5.536;2023-08-24T00:31:42;7.63;;;4.13;;
59786;SDS011;45672;51.612;5.536;2023-08-24T00:34:07;4.90;;;4.30;;
59786;SDS011;45672;51.612;5.536;2023-08-24T00:36:33;5.63;;;4.60;;
59786;SDS011;45672;51.612;5.536;2023-08-24T00:38:58;6.10;;;4.20;;
59786;SDS011;45672;51.612;5.536;2023-08-24T00:41:23;5.90;;;4.30;;
59786;SDS011;45672;51.612;5.536;2023-08-24T00:43:50;7.28;;;4.45;;
59786;SDS011;45672;51.612;5.536;2023-08-24T00:46:15;5.15;;;4.60;;
59786;SDS011;45672;51.612;5.536;2023-08-24T00:48:41;6.15;;;4.80;;
59786;SDS011;45672;51.612;5.536;2023-08-24T00:51:07;6.72;;;4.22;;
59786;SDS011;45672;51.612;5.536;2023-08-24T00:53:33;5.57;;;4.18;;
59786;SDS011;45672;51.612;5.536;2023-08-24T00:55:59;6.18;;;4.65;;
59786;SDS011;45672;51.612;5.536;2023-08-24T00:58:25;11.10;;;4.93;;
59786;SDS011;45672;51.612;5.536;2023-08-24T01:00:52;10.27;;;4.80;;
59786;SDS011;45672;51.612;5.536;2023-08-24T01:03:19;5.50;;;5.07;;
59786;SDS011;45672;51.612;5.536;2023-08-24T01:05:46;10.25;;;5.10;;
59786;SDS011;45672;51.612;5.536;2023-08-24T01:08:12;8.77;;;5.13;;
59786;SDS011;45672;51.612;5.536;2023-08-24T01:10:44;7.80;;;4.80;;
59786;SDS011;45672;51.612;5.536;2023-08-24T01:13:18;6.82;;;4.95;;
59786;SDS011;45672;51.612;5.536;2023-08-24T01:15:58;13.45;;;5.63;;
59786;SDS011;45672;51.612;5.536;2023-08-24T01:18:29;6.03;;;5.50;;
59786;SDS011;45672;51.612;5.536;2023-08-24T01:20:56;12.60;;;6.10;;
59786;SDS011;45672;51.612;5.536;2023-08-24T01:26:13;9.48;;;5.80;;
59786;SDS011;45672;51.612;5.536;2023-08-24T01:28:42;8.85;;;5.78;;
59786;SDS011;45672;51.612;5.536;2023-08-24T01:31:09;7.70;;;5.65;;
59786;SDS011;45672;51.612;5.536;2023-08-24T01:33:34;11.88;;;5.50;;
59786;SDS011;45672;51.612;5.536;2023-08-24T01:36:00;10.40;;;5.70;;
59786;SDS011;45672;51.612;5.536;2023-08-24T01:38:26;10.07;;;5.75;;
59786;SDS011;45672;51.612;5.536;2023-08-24T01:43:17;11.98;;;6.07;;
59786;SDS011;45672;51.612;5.536;2023-08-24T01:45:45;9.30;;;5.75;;
59786;SDS011;45672;51.612;5.536;2023-08-24T01:48:11;10.85;;;5.70;;
59786;SDS011;45672;51.612;5.536;2023-08-24T01:50:38;8.77;;;6.00;;
59786;SDS011;45672;51.612;5.536;2023-08-24T01:53:04;9.43;;;5.63;;
59786;SDS011;45672;51.612;5.536;2023-08-24T01:55:30;7.05;;;5.57;;
59786;SDS011;45672;51.612;5.536;2023-08-24T01:57:55;10.40;;;5.97;;
59786;SDS011;45672;51.612;5.536;2023-08-24T02:00:21;9.30;;;6.10;;
59786;SDS011;45672;51.612;5.536;2023-08-24T02:02:47;9.43;;;6.00;;
59786;SDS011;45672;51.612;5.536;2023-08-24T02:05:12;13.13;;;5.97;;
59786;SDS011;45672;51.612;5.536;2023-08-24T02:07:38;8.02;;;6.05;;
59786;SDS011;45672;51.612;5.536;2023-08-24T02:10:04;8.45;;;5.93;;
59786;SDS011;45672;51.612;5.536;2023-08-24T02:12:29;7.25;;;6.10;;
59786;SDS011;45672;51.612;5.536;2023-08-24T02:14:55;9.38;;;6.10;;
59786;SDS011;45672;51.612;5.536;2023-08-24T02:17:20;7.22;;;6.20;;
59786;SDS011;45672;51.612;5.536;2023-08-24T02:19:45;8.95;;;5.88;;
59786;SDS011;45672;51.612;5.536;2023-08-24T02:22:11;6.53;;;5.90;;
59786;SDS011;45672;51.612;5.536;2023-08-24T02:24:36;10.98;;;5.93;;
59786;SDS011;45672;51.612;5.536;2023-08-24T02:27:01;6.78;;;6.00;;
59786;SDS011;45672;51.612;5.536;2023-08-24T02:29:27;10.05;;;6.13;;
59786;SDS011;45672;51.612;5.536;2023-08-24T02:31:53;8.80;;;6.70;;
59786;SDS011;45672;51.612;5.536;2023-08-24T02:34:18;10.75;;;6.70;;
59786;SDS011;45672;51.612;5.536;2023-08-24T02:36:43;12.15;;;6.72;;
59786;SDS011;45672;51.612;5.536;2023-08-24T02:39:09;8.88;;;6.30;;
59786;SDS011;45672;51.612;5.536;2023-08-24T02:41:35;7.45;;;6.28;;
59786;SDS011;45672;51.612;5.536;2023-08-24T02:44:01;11.05;;;6.70;;
59786;SDS011;45672;51.612;5.536;2023-08-24T02:46:27;12.70;;;6.90;;
59786;SDS011;45672;51.612;5.536;2023-08-24T02:48:52;9.38;;;6.43;;
59786;SDS011;45672;51.612;5.536;2023-08-24T02:51:19;10.38;;;6.90;;
59786;SDS011;45672;51.612;5.536;2023-08-24T02:53:46;8.32;;;7.28;;
59786;SDS011;45672;51.612;5.536;2023-08-24T02:56:11;9.43;;;7.55;;
59786;SDS011;45672;51.612;5.536;2023-08-24T02:58:36;10.07;;;7.43;;
59786;SDS011;45672;51.612;5.536;2023-08-24T03:01:05;13.07;;;7.85;;
59786;SDS011;45672;51.612;5.536;2023-08-24T03:03:32;20.67;;;8.75;;
59786;SDS011;45672;51.612;5.536;2023-08-24T03:05:59;26.13;;;8.73;;
59786;SDS011;45672;51.612;5.536;2023-08-24T03:08:26;11.00;;;9.05;;
59786;SDS011;45672;51.612;5.536;2023-08-24T03:10:51;15.50;;;9.57;;
59786;SDS011;45672;51.612;5.536;2023-08-24T03:13:17;18.02;;;9.82;;
59786;SDS011;45672;51.612;5.536;2023-08-24T03:15:43;18.40;;;10.02;;
59786;SDS011;45672;51.612;5.536;2023-08-24T03:18:12;15.07;;;10.48;;
59786;SDS011;45672;51.612;5.536;2023-08-24T03:20:38;18.65;;;11.15;;
59786;SDS011;45672;51.612;5.536;2023-08-24T03:23:04;17.98;;;11.55;;
59786;SDS011;45672;51.612;5.536;2023-08-24T03:25:29;21.00;;;12.75;;
59786;SDS011;45672;51.612;5.536;2023-08-24T03:27:54;18.05;;;12.20;;
59786;SDS011;45672;51.612;5.536;2023-08-24T03:30:20;21.00;;;12.80;;
59786;SDS011;45672;51.612;5.536;2023-08-24T03:32:47;18.83;;;12.95;;
59786;SDS011;45672;51.612;5.536;2023-08-24T03:35:12;20.30;;;14.10;;
59786;SDS011;45672;51.612;5.536;2023-08-24T03:37:38;19.98;;;13.85;;
59786;SDS011;45672;51.612;5.536;2023-08-24T03:40:03;18.15;;;15.15;;
59786;SDS011;45672;51.612;5.536;2023-08-24T03:42:31;24.08;;;15.23;;
59786;SDS011;45672;51.612;5.536;2023-08-24T03:44:56;18.58;;;14.52;;
59786;SDS011;45672;51.612;5.536;2023-08-24T03:47:24;19.30;;;14.57;;
59786;SDS011;45672;51.612;5.536;2023-08-24T03:49:49;19.45;;;14.70;;
59786;SDS011;45672;51.612;5.536;2023-08-24T03:52:14;22.13;;;15.07;;
59786;SDS011;45672;51.612;5.536;2023-08-24T03:54:39;21.42;;;15.40;;
59786;SDS011;45672;51.612;5.536;2023-08-24T03:57:05;21.45;;;14.80;;
59786;SDS011;45672;51.612;5.536;2023-08-24T03:59:30;20.48;;;15.40;;
59786;SDS011;45672;51.612;5.536;2023-08-24T04:01:55;22.90;;;15.00;;
59786;SDS011;45672;51.612;5.536;2023-08-24T04:04:24;22.33;;;15.00;;
59786;SDS011;45672;51.612;5.536;2023-08-24T04:06:49;17.63;;;14.48;;
59786;SDS011;45672;51.612;5.536;2023-08-24T04:09:15;21.85;;;14.60;;
59786;SDS011;45672;51.612;5.536;2023-08-24T04:11:40;21.02;;;13.73;;
59786;SDS011;45672;51.612;5.536;2023-08-24T04:14:05;22.70;;;14.57;;
59786;SDS011;45672;51.612;5.536;2023-08-24T04:16:31;24.33;;;14.60;;
59786;SDS011;45672;51.612;5.536;2023-08-24T04:18:56;23.88;;;14.93;;
59786;SDS011;45672;51.612;5.536;2023-08-24T04:21:21;22.17;;;14.43;;
59786;SDS011;45672;51.612;5.536;2023-08-24T04:23:46;24.98;;;15.18;;
59786;SDS011;45672;51.612;5.536;2023-08-24T04:26:12;24.75;;;15.25;;
59786;SDS011;45672;51.612;5.536;2023-08-24T04:28:38;20.40;;;14.55;;
59786;SDS011;45672;51.612;5.536;2023-08-24T04:31:03;25.50;;;14.38;;
59786;SDS011;45672;51.612;5.536;2023-08-24T04:33:28;25.52;;;14.77;;
59786;SDS011;45672;51.612;5.536;2023-08-24T04:35:54;17.60;;;14.38;;
59786;SDS011;45672;51.612;5.536;2023-08-24T04:38:19;19.25;;;14.73;;
59786;SDS011;45672;51.612;5.536;2023-08-24T04:40:46;18.77;;;14.18;;
59786;SDS011;45672;51.612;5.536;2023-08-24T04:43:13;22.17;;;14.52;;
59786;SDS011;45672;51.612;5.536;2023-08-24T04:45:38;20.85;;;14.98;;
59786;SDS011;45672;51.612;5.536;2023-08-24T04:48:03;21.30;;;14.50;;
59786;SDS011;45672;51.612;5.536;2023-08-24T04:50:29;22.23;;;14.95;;
59786;SDS011;45672;51.612;5.536;2023-08-24T04:52:54;21.10;;;14.60;;
59786;SDS011;45672;51.612;5.536;2023-08-24T04:55:20;19.48;;;14.38;;
59786;SDS011;45672;51.612;5.536;2023-08-24T04:57:45;20.70;;;14.43;;
59786;SDS011;45672;51.612;5.536;2023-08-24T05:00:10;18.75;;;14.50;;
59786;SDS011;45672;51.612;5.536;2023-08-24T05:02:41;18.05;;;14.60;;
59786;SDS011;45672;51.612;5.536;2023-08-24T05:05:07;23.30;;;14.70;;
59786;SDS011;45672;51.612;5.536;2023-08-24T05:07:35;19.30;;;14.57;;
59786;SDS011;45672;51.612;5.536;2023-08-24T05:10:00;21.35;;;15.30;;
59786;SDS011;45672;51.612;5.536;2023-08-24T05:12:25;18.83;;;15.50;;
59786;SDS011;45672;51.612;5.536;2023-08-24T05:14:51;26.27;;;15.45;;
59786;SDS011;45672;51.612;5.536;2023-08-24T05:17:16;22.85;;;15.73;;
59786;SDS011;45672;51.612;5.536;2023-08-24T05:19:41;25.33;;;15.68;;
59786;SDS011;45672;51.612;5.536;2023-08-24T05:22:07;23.25;;;16.15;;
59786;SDS011;45672;51.612;5.536;2023-08-24T05:24:32;21.23;;;15.30;;
59786;SDS011;45672;51.612;5.536;2023-08-24T05:26:57;20.73;;;15.40;;
59786;SDS011;45672;51.612;5.536;2023-08-24T05:29:22;20.83;;;15.55;;
59786;SDS011;45672;51.612;5.536;2023-08-24T05:31:48;23.52;;;15.90;;
59786;SDS011;45672;51.612;5.536;2023-08-24T05:34:13;23.17;;;16.08;;
59786;SDS011;45672;51.612;5.536;2023-08-24T05:36:38;23.58;;;15.55;;
59786;SDS011;45672;51.612;5.536;2023-08-24T05:39:04;25.23;;;17.05;;
59786;SDS011;45672;51.612;5.536;2023-08-24T05:41:29;24.42;;;16.20;;
59786;SDS011;45672;51.612;5.536;2023-08-24T05:43:54;21.88;;;16.35;;
59786;SDS011;45672;51.612;5.536;2023-08-24T05:46:22;26.35;;;16.00;;
59786;SDS011;45672;51.612;5.536;2023-08-24T05:48:47;19.77;;;15.45;;
59786;SDS011;45672;51.612;5.536;2023-08-24T05:51:12;19.60;;;15.75;;
59786;SDS011;45672;51.612;5.536;2023-08-24T05:53:38;28.77;;;16.63;;
59786;SDS011;45672;51.612;5.536;2023-08-24T05:56:05;26.88;;;17.05;;
59786;SDS011;45672;51.612;5.536;2023-08-24T05:58:31;24.90;;;16.92;;
59786;SDS011;45672;51.612;5.536;2023-08-24T06:00:57;22.33;;;16.67;;
59786;SDS011;45672;51.612;5.536;2023-08-24T06:03:24;23.83;;;17.20;;
59786;SDS011;45672;51.612;5.536;2023-08-24T06:05:49;23.65;;;17.52;;
59786;SDS011;45672;51.612;5.536;2023-08-24T06:08:15;21.63;;;16.83;;
59786;SDS011;45672;51.612;5.536;2023-08-24T06:10:41;25.77;;;17.13;;
59786;SDS011;45672;51.612;5.536;2023-08-24T06:13:06;22.80;;;17.27;;
59786;SDS011;45672;51.612;5.536;2023-08-24T06:15:32;22.70;;;17.35;;
59786;SDS011;45672;51.612;5.536;2023-08-24T06:17:57;26.98;;;16.90;;
59786;SDS011;45672;51.612;5.536;2023-08-24T06:20:24;27.92;;;17.67;;
59786;SDS011;45672;51.612;5.536;2023-08-24T06:22:49;24.02;;;17.77;;
59786;SDS011;45672;51.612;5.536;2023-08-24T06:25:15;22.65;;;16.35;;
59786;SDS011;45672;51.612;5.536;2023-08-24T06:27:40;24.17;;;17.17;;
59786;SDS011;45672;51.612;5.536;2023-08-24T06:30:06;19.73;;;16.50;;
59786;SDS011;45672;51.612;5.536;2023-08-24T06:32:32;28.05;;;17.13;;
59786;SDS011;45672;51.612;5.536;2023-08-24T06:34:57;22.15;;;16.35;;
59786;SDS011;45672;51.612;5.536;2023-08-24T06:37:23;22.23;;;15.70;;
59786;SDS011;45672;51.612;5.536;2023-08-24T06:39:48;23.05;;;15.68;;
59786;SDS011;45672;51.612;5.536;2023-08-24T06:42:14;20.95;;;15.20;;
59786;SDS011;45672;51.612;5.536;2023-08-24T06:44:39;25.92;;;14.13;;
59786;SDS011;45672;51.612;5.536;2023-08-24T06:47:05;22.10;;;14.23;;
59786;SDS011;45672;51.612;5.536;2023-08-24T06:49:30;18.98;;;13.48;;
59786;SDS011;45672;51.612;5.536;2023-08-24T06:51:55;18.33;;;12.88;;
59786;SDS011;45672;51.612;5.536;2023-08-24T06:54:21;17.30;;;12.30;;
59786;SDS011;45672;51.612;5.536;2023-08-24T06:56:47;19.83;;;11.80;;
59786;SDS011;45672;51.612;5.536;2023-08-24T06:59:13;16.05;;;10.93;;
59786;SDS011;45672;51.612;5.536;2023-08-24T07:01:39;15.95;;;11.15;;
59786;SDS011;45672;51.612;5.536;2023-08-24T07:04:05;17.40;;;11.27;;
59786;SDS011;45672;51.612;5.536;2023-08-24T07:06:32;14.80;;;10.88;;
59786;SDS011;45672;51.612;5.536;2023-08-24T07:08:59;14.98;;;10.13;;
59786;SDS011;45672;51.612;5.536;2023-08-24T07:11:24;16.00;;;10.40;;
59786;SDS011;45672;51.612;5.536;2023-08-24T07:13:51;13.45;;;9.80;;
59786;SDS011;45672;51.612;5.536;2023-08-24T07:16:18;14.77;;;9.57;;
59786;SDS011;45672;51.612;5.536;2023-08-24T07:18:44;13.60;;;10.30;;
59786;SDS011;45672;51.612;5.536;2023-08-24T07:21:09;13.63;;;9.73;;
59786;SDS011;45672;51.612;5.536;2023-08-24T07:23:34;15.27;;;9.35;;
59786;SDS011;45672;51.612;5.536;2023-08-24T07:26:00;15.65;;;9.00;;
59786;SDS011;45672;51.612;5.536;2023-08-24T07:28:25;12.13;;;8.38;;
59786;SDS011;45672;51.612;5.536;2023-08-24T07:30:50;11.07;;;8.52;;
59786;SDS011;45672;51.612;5.536;2023-08-24T07:33:20;10.93;;;9.20;;
59786;SDS011;45672;51.612;5.536;2023-08-24T07:35:46;17.05;;;8.15;;
59786;SDS011;45672;51.612;5.536;2023-08-24T07:38:12;11.60;;;8.57;;
59786;SDS011;45672;51.612;5.536;2023-08-24T07:40:37;15.93;;;8.68;;
59786;SDS011;45672;51.612;5.536;2023-08-24T07:43:02;12.88;;;8.15;;
59786;SDS011;45672;51.612;5.536;2023-08-24T07:45:29;10.20;;;8.25;;
59786;SDS011;45672;51.612;5.536;2023-08-24T07:47:54;12.77;;;8.27;;
59786;SDS011;45672;51.612;5.536;2023-08-24T07:50:20;11.27;;;7.97;;
59786;SDS011;45672;51.612;5.536;2023-08-24T07:52:45;14.48;;;8.13;;
59786;SDS011;45672;51.612;5.536;2023-08-24T07:55:10;12.40;;;7.93;;
59786;SDS011;45672;51.612;5.536;2023-08-24T07:57:36;11.10;;;7.75;;
59786;SDS011;45672;51.612;5.536;2023-08-24T08:00:04;11.90;;;8.48;;
59786;SDS011;45672;51.612;5.536;2023-08-24T08:02:31;11.27;;;8.38;;
59786;SDS011;45672;51.612;5.536;2023-08-24T08:04:59;14.95;;;8.23;;
59786;SDS011;45672;51.612;5.536;2023-08-24T08:07:25;10.95;;;7.97;;
59786;SDS011;45672;51.612;5.536;2023-08-24T08:09:51;11.45;;;8.75;;
59786;SDS011;45672;51.612;5.536;2023-08-24T08:12:16;12.23;;;8.18;;
59786;SDS011;45672;51.612;5.536;2023-08-24T08:14:42;15.55;;;8.18;;
59786;SDS011;45672;51.612;5.536;2023-08-24T08:17:07;13.57;;;8.43;;
59786;SDS011;45672;51.612;5.536;2023-08-24T08:19:33;9.35;;;7.97;;
59786;SDS011;45672;51.612;5.536;2023-08-24T08:22:00;10.88;;;8.30;;
59786;SDS011;45672;51.612;5.536;2023-08-24T08:24:26;11.95;;;8.88;;
59786;SDS011;45672;51.612;5.536;2023-08-24T08:26:51;11.40;;;8.30;;
59786;SDS011;45672;51.612;5.536;2023-08-24T08:29:17;13.27;;;8.38;;
59786;SDS011;45672;51.612;5.536;2023-08-24T08:31:43;13.88;;;7.53;;
59786;SDS011;45672;51.612;5.536;2023-08-24T08:34:08;9.45;;;7.85;;
59786;SDS011;45672;51.612;5.536;2023-08-24T08:36:33;12.43;;;8.02;;
59786;SDS011;45672;51.612;5.536;2023-08-24T08:38:59;11.90;;;8.00;;
59786;SDS011;45672;51.612;5.536;2023-08-24T08:41:25;11.52;;;8.68;;
59786;SDS011;45672;51.612;5.536;2023-08-24T08:43:55;10.73;;;8.60;;
59786;SDS011;45672;51.612;5.536;2023-08-24T08:46:21;13.57;;;9.10;;
59786;SDS011;45672;51.612;5.536;2023-08-24T08:48:47;16.08;;;9.52;;
59786;SDS011;45672;51.612;5.536;2023-08-24T08:51:15;10.82;;;9.00;;
59786;SDS011;45672;51.612;5.536;2023-08-24T08:53:42;18.88;;;9.70;;
59786;SDS011;45672;51.612;5.536;2023-08-24T08:56:08;15.85;;;8.93;;
59786;SDS011;45672;51.612;5.536;2023-08-24T08:58:33;13.77;;;9.23;;
59786;SDS011;45672;51.612;5.536;2023-08-24T09:01:02;11.32;;;9.68;;
59786;SDS011;45672;51.612;5.536;2023-08-24T09:03:29;16.20;;;9.60;;
59786;SDS011;45672;51.612;5.536;2023-08-24T09:05:56;16.08;;;9.35;;
59786;SDS011;45672;51.612;5.536;2023-08-24T09:08:22;12.10;;;9.07;;
59786;SDS011;45672;51.612;5.536;2023-08-24T09:10:48;13.48;;;9.55;;
59786;SDS011;45672;51.612;5.536;2023-08-24T09:13:14;14.43;;;9.13;;
59786;SDS011;45672;51.612;5.536;2023-08-24T09:15:39;12.90;;;9.43;;
59786;SDS011;45672;51.612;5.536;2023-08-24T09:18:05;17.40;;;9.32;;
59786;SDS011;45672;51.612;5.536;2023-08-24T09:20:30;15.82;;;10.40;;
59786;SDS011;45672;51.612;5.536;2023-08-24T09:22:56;11.82;;;10.10;;
59786;SDS011;45672;51.612;5.536;2023-08-24T09:25:22;21.45;;;10.32;;
59786;SDS011;45672;51.612;5.536;2023-08-24T09:27:57;13.90;;;10.20;;
59786;SDS011;45672;51.612;5.536;2023-08-24T09:30:45;12.70;;;10.45;;
59786;SDS011;45672;51.612;5.536;2023-08-24T09:33:10;12.05;;;10.30;;
59786;SDS011;45672;51.612;5.536;2023-08-24T09:35:36;14.40;;;9.70;;
59786;SDS011;45672;51.612;5.536;2023-08-24T09:38:20;15.15;;;10.23;;
59786;SDS011;45672;51.612;5.536;2023-08-24T09:40:50;14.57;;;9.98;;
59786;SDS011;45672;51.612;5.536;2023-08-24T09:43:16;16.67;;;10.77;;
59786;SDS011;45672;51.612;5.536;2023-08-24T09:45:51;11.40;;;10.20;;
59786;SDS011;45672;51.612;5.536;2023-08-24T09:48:21;18.17;;;10.23;;
59786;SDS011;45672;51.612;5.536;2023-08-24T09:50:48;12.88;;;9.63;;
59786;SDS011;45672;51.612;5.536;2023-08-24T09:53:16;20.15;;;10.23;;
59786;SDS011;45672;51.612;5.536;2023-08-24T09:55:42;12.95;;;9.70;;
59786;SDS011;45672;51.612;5.536;2023-08-24T09:58:14;15.27;;;10.02;;
59786;SDS011;45672;51.612;5.536;2023-08-24T10:00:40;16.17;;;9.70;;
59786;SDS011;45672;51.612;5.536;2023-08-24T10:03:06;12.23;;;9.90;;
59786;SDS011;45672;51.612;5.536;2023-08-24T10:05:33;11.73;;;9.02;;
59786;SDS011;45672;51.612;5.536;2023-08-24T10:07:59;14.73;;;9.90;;
59786;SDS011;45672;51.612;5.536;2023-08-24T10:10:26;20.25;;;10.32;;
59786;SDS011;45672;51.612;5.536;2023-08-24T10:12:58;18.35;;;10.23;;
59786;SDS011;45672;51.612;5.536;2023-08-24T10:15:30;14.63;;;10.25;;
59786;SDS011;45672;51.612;5.536;2023-08-24T10:17:55;18.75;;;10.02;;
59786;SDS011;45672;51.612;5.536;2023-08-24T10:20:22;13.85;;;10.25;;
59786;SDS011;45672;51.612;5.536;2023-08-24T10:22:49;13.27;;;9.70;;
59786;SDS011;45672;51.612;5.536;2023-08-24T10:25:16;12.98;;;9.98;;
59786;SDS011;45672;51.612;5.536;2023-08-24T10:27:43;17.42;;;9.23;;
59786;SDS011;45672;51.612;5.536;2023-08-24T10:30:11;13.95;;;10.02;;
59786;SDS011;45672;51.612;5.536;2023-08-24T10:32:37;14.27;;;9.38;;
59786;SDS011;45672;51.612;5.536;2023-08-24T10:35:04;12.85;;;9.52;;
59786;SDS011;45672;51.612;5.536;2023-08-24T10:37:30;14.88;;;9.55;;
59786;SDS011;45672;51.612;5.536;2023-08-24T10:39:56;16.63;;;8.90;;
59786;SDS011;45672;51.612;5.536;2023-08-24T10:42:21;14.95;;;8.95;;
59786;SDS011;45672;51.612;5.536;2023-08-24T10:44:47;16.40;;;9.23;;
59786;SDS011;45672;51.612;5.536;2023-08-24T10:49:43;15.27;;;10.02;;
59786;SDS011;45672;51.612;5.536;2023-08-24T10:54:45;14.35;;;9.80;;
59786;SDS011;45672;51.612;5.536;2023-08-24T10:57:26;14.20;;;10.00;;
59786;SDS011;45672;51.612;5.536;2023-08-24T11:00:06;16.70;;;9.63;;
59786;SDS011;45672;51.612;5.536;2023-08-24T11:02:43;13.00;;;9.80;;
59786;SDS011;45672;51.612;5.536;2023-08-24T11:05:17;14.18;;;9.38;;
59786;SDS011;45672;51.612;5.536;2023-08-24T11:07:57;11.75;;;9.10;;
59786;SDS011;45672;51.612;5.536;2023-08-24T11:10:25;13.10;;;9.00;;
59786;SDS011;45672;51.612;5.536;2023-08-24T11:13:12;14.63;;;8.43;;
59786;SDS011;45672;51.612;5.536;2023-08-24T11:18:15;13.43;;;7.47;;
59786;SDS011;45672;51.612;5.536;2023-08-24T11:20:45;12.35;;;7.00;;
59786;SDS011;45672;51.612;5.536;2023-08-24T11:23:12;10.75;;;6.90;;
59786;SDS011;45672;51.612;5.536;2023-08-24T11:25:38;11.25;;;6.22;;
59786;SDS011;45672;51.612;5.536;2023-08-24T11:28:04;12.20;;;5.68;;
59786;SDS011;45672;51.612;5.536;2023-08-24T11:30:32;11.70;;;5.97;;
59786;SDS011;45672;51.612;5.536;2023-08-24T11:32:58;11.15;;;6.10;;
59786;SDS011;45672;51.612;5.536;2023-08-24T11:35:24;9.50;;;5.63;;
59786;SDS011;45672;51.612;5.536;2023-08-24T11:37:51;15.35;;;5.97;;
59786;SDS011;45672;51.612;5.536;2023-08-24T11:42:58;17.05;;;5.38;;
59786;SDS011;45672;51.612;5.536;2023-08-24T11:45:23;12.48;;;5.72;;
59786;SDS011;45672;51.612;5.536;2023-08-24T11:47:54;7.90;;;5.22;;
59786;SDS011;45672;51.612;5.536;2023-08-24T11:50:19;9.48;;;5.63;;
59786;SDS011;45672;51.612;5.536;2023-08-24T11:52:45;8.75;;;5.80;;
59786;SDS011;45672;51.612;5.536;2023-08-24T11:55:11;8.57;;;6.00;;
59786;SDS011;45672;51.612;5.536;2023-08-24T11:57:37;13.82;;;6.40;;
59786;SDS011;45672;51.612;5.536;2023-08-24T12:00:03;8.10;;;6.00;;
59786;SDS011;45672;51.612;5.536;2023-08-24T12:02:29;12.23;;;5.75;;
59786;SDS011;45672;51.612;5.536;2023-08-24T12:04:55;14.70;;;5.75;;
59786;SDS011;45672;51.612;5.536;2023-08-24T12:07:21;8.30;;;5.10;;
59786;SDS011;45672;51.612;5.536;2023-08-24T12:09:46;9.68;;;5.50;;
59786;SDS011;45672;51.612;5.536;2023-08-24T12:12:15;11.07;;;5.55;;
59786;SDS011;45672;51.612;5.536;2023-08-24T12:14:45;13.07;;;5.32;;
59786;SDS011;45672;51.612;5.536;2023-08-24T12:17:11;11.05;;;5.47;;
59786;SDS011;45672;51.612;5.536;2023-08-24T12:19:44;10.55;;;5.68;;
59786;SDS011;45672;51.612;5.536;2023-08-24T12:22:20;13.23;;;5.35;;
59786;SDS011;45672;51.612;5.536;2023-08-24T12:24:46;13.95;;;5.22;;
59786;SDS011;45672;51.612;5.536;2023-08-24T12:27:18;12.63;;;5.30;;
59786;SDS011;45672;51.612;5.536;2023-08-24T12:29:53;11.43;;;5.28;;
59786;SDS011;45672;51.612;5.536;2023-08-24T12:32:19;11.18;;;5.35;;
59786;SDS011;45672;51.612;5.536;2023-08-24T12:34:47;13.93;;;5.20;;
59786;SDS011;45672;51.612;5.536;2023-08-24T12:37:13;9.90;;;5.30;;
59786;SDS011;45672;51.612;5.536;2023-08-24T12:39:39;6.65;;;4.90;;
59786;SDS011;45672;51.612;5.536;2023-08-24T12:42:04;12.05;;;5.07;;
59786;SDS011;45672;51.612;5.536;2023-08-24T12:44:31;11.02;;;6.13;;
59786;SDS011;45672;51.612;5.536;2023-08-24T12:46:57;10.30;;;6.00;;
59786;SDS011;45672;51.612;5.536;2023-08-24T12:49:22;9.98;;;6.30;;
59786;SDS011;45672;51.612;5.536;2023-08-24T12:51:48;11.07;;;6.40;;
59786;SDS011;45672;51.612;5.536;2023-08-24T12:54:13;12.60;;;6.40;;
59786;SDS011;45672;51.612;5.536;2023-08-24T12:56:39;12.75;;;6.40;;
59786;SDS011;45672;51.612;5.536;2023-08-24T12:59:05;10.80;;;5.93;;
59786;SDS011;45672;51.612;5.536;2023-08-24T13:01:31;12.98;;;6.10;;
59786;SDS011;45672;51.612;5.536;2023-08-24T13:03:56;10.43;;;5.65;;
59786;SDS011;45672;51.612;5.536;2023-08-24T13:06:21;11.90;;;5.70;;
59786;SDS011;45672;51.612;5.536;2023-08-24T13:08:47;15.15;;;5.32;;
59786;SDS011;45672;51.612;5.536;2023-08-24T13:11:12;11.95;;;5.65;;
59786;SDS011;45672;51.612;5.536;2023-08-24T13:13:37;10.23;;;5.47;;
59786;SDS011;45672;51.612;5.536;2023-08-24T13:16:02;8.15;;;5.40;;
59786;SDS011;45672;51.612;5.536;2023-08-24T13:18:28;7.85;;;5.65;;
59786;SDS011;45672;51.612;5.536;2023-08-24T13:20:53;8.82;;;5.78;;
59786;SDS011;45672;51.612;5.536;2023-08-24T13:23:18;8.38;;;5.45;;
59786;SDS011;45672;51.612;5.536;2023-08-24T13:25:44;5.90;;;4.78;;
59786;SDS011;45672;51.612;5.536;2023-08-24T13:28:09;6.38;;;4.32;;
59786;SDS011;45672;51.612;5.536;2023-08-24T13:30:35;6.88;;;4.35;;
59786;SDS011;45672;51.612;5.536;2023-08-24T13:33:00;7.13;;;4.53;;
59786;SDS011;45672;51.612;5.536;2023-08-24T13:35:25;11.65;;;4.80;;
59786;SDS011;45672;51.612;5.536;2023-08-24T13:37:51;8.35;;;4.65;;
59786;SDS011;45672;51.612;5.536;2023-08-24T13:40:16;10.95;;;5.07;;
59786;SDS011;45672;51.612;5.536;2023-08-24T13:42:42;11.10;;;5.20;;
59786;SDS011;45672;51.612;5.536;2023-08-24T13:45:07;9.65;;;5.53;;
59786;SDS011;45672;51.612;5.536;2023-08-24T13:47:33;6.65;;;4.78;;
59786;SDS011;45672;51.612;5.536;2023-08-24T13:49:58;9.45;;;5.05;;
59786;SDS011;45672;51.612;5.536;2023-08-24T13:52:23;8.57;;;4.70;;
59786;SDS011;45672;51.612;5.536;2023-08-24T13:54:49;8.32;;;4.63;;
59786;SDS011;45672;51.612;5.536;2023-08-24T13:57:14;9.02;;;4.80;;
59786;SDS011;45672;51.612;5.536;2023-08-24T13:59:40;6.63;;;4.38;;
59786;SDS011;45672;51.612;5.536;2023-08-24T14:02:05;9.10;;;4.25;;
59786;SDS011;45672;51.612;5.536;2023-08-24T14:04:31;5.22;;;4.28;;
59786;SDS011;45672;51.612;5.536;2023-08-24T14:06:57;6.00;;;3.88;;
59786;SDS011;45672;51.612;5.536;2023-08-24T14:09:22;10.75;;;4.07;;
59786;SDS011;45672;51.612;5.536;2023-08-24T14:11:47;11.45;;;4.20;;
59786;SDS011;45672;51.612;5.536;2023-08-24T14:14:13;5.72;;;3.38;;
59786;SDS011;45672;51.612;5.536;2023-08-24T14:16:39;6.03;;;3.13;;
59786;SDS011;45672;51.612;5.536;2023-08-24T14:19:04;7.43;;;3.22;;
59786;SDS011;45672;51.612;5.536;2023-08-24T14:21:29;7.82;;;3.50;;
59786;SDS011;45672;51.612;5.536;2023-08-24T14:23:55;8.75;;;3.90;;
59786;SDS011;45672;51.612;5.536;2023-08-24T14:26:20;5.47;;;2.90;;
59786;SDS011;45672;51.612;5.536;2023-08-24T14:31:19;12.05;;;3.50;;
59786;SDS011;45672;51.612;5.536;2023-08-24T14:33:45;8.23;;;3.20;;
59786;SDS011;45672;51.612;5.536;2023-08-24T14:36:10;8.48;;;3.30;;
59786;SDS011;45672;51.612;5.536;2023-08-24T14:38:39;6.95;;;3.38;;
59786;SDS011;45672;51.612;5.536;2023-08-24T14:41:06;4.00;;;2.72;;
59786;SDS011;45672;51.612;5.536;2023-08-24T14:43:32;6.55;;;2.97;;
59786;SDS011;45672;51.612;5.536;2023-08-24T14:45:58;6.00;;;3.13;;